sensor_id;sensor_type;location;lat;lon;timestamp;temperature;humidity
33803;DHT22;20110;53.120;5.786;2023-04-03T00:00:52;-0.60;99.90
33803;DHT22;20110;53.120;5.786;2023-04-03T00:03:19;-0.60;99.90
33803;DHT22;20110;53.120;5.786;2023-04-03T00:05:46;-0.60;99.90
33803;DHT22;20110;53.120;5.786;2023-04-03T00:08:12;-0.50;99.90
33803;DHT22;20110;53.120;5.786;2023-04-03T00:10:38;-0.60;99.90
33803;DHT22;20110;53.120;5.786;2023-04-03T00:13:05;-0.60;99.90
33803;DHT22;20110;53.120;5.786;2023-04-03T00:15:32;-0.70;99.90
33803;DHT22;20110;53.120;5.786;2023-04-03T00:17:58;-0.70;99.90
33803;DHT22;20110;53.120;5.786;2023-04-03T00:20:24;-0.60;99.90
33803;DHT22;20110;53.120;5.786;2023-04-03T00:22:50;-0.70;99.90
33803;DHT22;20110;53.120;5.786;2023-04-03T00:25:16;-0.60;99.90
33803;DHT22;20110;53.120;5.786;2023-04-03T00:27:41;-0.70;99.90
33803;DHT22;20110;53.120;5.786;2023-04-03T00:30:09;-0.70;99.90
33803;DHT22;20110;53.120;5.786;2023-04-03T00:32:39;-0.70;99.90
33803;DHT22;20110;53.120;5.786;2023-04-03T00:35:05;-0.80;99.90
33803;DHT22;20110;53.120;5.786;2023-04-03T00:37:32;-0.90;99.90
33803;DHT22;20110;53.120;5.786;2023-04-03T00:39:58;-1.00;99.90
33803;DHT22;20110;53.120;5.786;2023-04-03T00:42:24;-1.10;99.90
33803;DHT22;20110;53.120;5.786;2023-04-03T00:47:23;-1.20;99.90
33803;DHT22;20110;53.120;5.786;2023-04-03T00:49:52;-1.30;99.90
33803;DHT22;20110;53.120;5.786;2023-04-03T00:52:22;-1.40;99.90
33803;DHT22;20110;53.120;5.786;2023-04-03T00:54:55;-1.40;99.90
33803;DHT22;20110;53.120;5.786;2023-04-03T00:57:24;-1.60;99.90
33803;DHT22;20110;53.120;5.786;2023-04-03T00:59:53;-1.70;99.90
33803;DHT22;20110;53.120;5.786;2023-04-03T01:02:23;-1.70;99.90
33803;DHT22;20110;53.120;5.786;2023-04-03T01:04:49;-1.70;99.90
33803;DHT22;20110;53.120;5.786;2023-04-03T01:07:17;-1.90;99.90
33803;DHT22;20110;53.120;5.786;2023-04-03T01:09:48;-1.90;99.90
33803;DHT22;20110;53.120;5.786;2023-04-03T01:12:32;-1.90;99.90
33803;DHT22;20110;53.120;5.786;2023-04-03T01:15:03;-2.00;99.90
33803;DHT22;20110;53.120;5.786;2023-04-03T01:18:00;-2.10;99.90
33803;DHT22;20110;53.120;5.786;2023-04-03T01:25:42;-2.00;99.90
33803;DHT22;20110;53.120;5.786;2023-04-03T01:28:16;-2.00;99.90
33803;DHT22;20110;53.120;5.786;2023-04-03T01:30:56;-2.00;99.90
33803;DHT22;20110;53.120;5.786;2023-04-03T01:33:24;-2.00;99.90
33803;DHT22;20110;53.120;5.786;2023-04-03T01:35:49;-2.10;99.90
33803;DHT22;20110;53.120;5.786;2023-04-03T01:38:15;-2.10;99.90
33803;DHT22;20110;53.120;5.786;2023-04-03T01:40:41;-2.10;99.90
33803;DHT22;20110;53.120;5.786;2023-04-03T01:43:07;-2.10;99.90
33803;DHT22;20110;53.120;5.786;2023-04-03T01:45:33;-2.20;99.90
33803;DHT22;20110;53.120;5.786;2023-04-03T01:47:59;-2.20;99.90
33803;DHT22;20110;53.120;5.786;2023-04-03T01:50:25;-2.20;99.90
33803;DHT22;20110;53.120;5.786;2023-04-03T01:52:51;-2.30;99.90
33803;DHT22;20110;53.120;5.786;2023-04-03T01:55:17;-2.30;99.90
33803;DHT22;20110;53.120;5.786;2023-04-03T01:57:42;-2.40;99.90
33803;DHT22;20110;53.120;5.786;2023-04-03T02:00:09;-2.30;99.90
33803;DHT22;20110;53.120;5.786;2023-04-03T02:02:35;-2.40;99.90
33803;DHT22;20110;53.120;5.786;2023-04-03T02:05:01;-2.40;99.90
33803;DHT22;20110;53.120;5.786;2023-04-03T02:07:26;-2.40;99.90
33803;DHT22;20110;53.120;5.786;2023-04-03T02:09:52;-2.40;99.90
33803;DHT22;20110;53.120;5.786;2023-04-03T02:12:18;-2.40;99.90
33803;DHT22;20110;53.120;5.786;2023-04-03T02:14:44;-2.40;99.90
33803;DHT22;20110;53.120;5.786;2023-04-03T02:17:10;-2.50;99.90
33803;DHT22;20110;53.120;5.786;2023-04-03T02:19:36;-2.50;99.90
33803;DHT22;20110;53.120;5.786;2023-04-03T02:22:03;-2.50;99.90
33803;DHT22;20110;53.120;5.786;2023-04-03T02:24:30;-2.40;99.90
33803;DHT22;20110;53.120;5.786;2023-04-03T02:26:57;-2.50;99.90
33803;DHT22;20110;53.120;5.786;2023-04-03T02:29:23;-2.50;99.90
33803;DHT22;20110;53.120;5.786;2023-04-03T02:31:50;-2.50;99.90
33803;DHT22;20110;53.120;5.786;2023-04-03T02:34:17;-2.60;99.90
33803;DHT22;20110;53.120;5.786;2023-04-03T02:36:42;-2.70;99.90
33803;DHT22;20110;53.120;5.786;2023-04-03T02:39:09;-2.80;99.90
33803;DHT22;20110;53.120;5.786;2023-04-03T02:41:35;-2.80;99.90
33803;DHT22;20110;53.120;5.786;2023-04-03T02:44:02;-2.90;99.90
33803;DHT22;20110;53.120;5.786;2023-04-03T02:46:28;-2.90;99.90
33803;DHT22;20110;53.120;5.786;2023-04-03T02:48:54;-2.90;99.90
33803;DHT22;20110;53.120;5.786;2023-04-03T02:51:21;-2.80;99.90
33803;DHT22;20110;53.120;5.786;2023-04-03T02:53:48;-2.70;99.90
33803;DHT22;20110;53.120;5.786;2023-04-03T02:56:15;-2.70;99.90
33803;DHT22;20110;53.120;5.786;2023-04-03T02:58:42;-2.80;99.90
33803;DHT22;20110;53.120;5.786;2023-04-03T03:01:09;-2.80;99.90
33803;DHT22;20110;53.120;5.786;2023-04-03T03:03:35;-2.70;99.90
33803;DHT22;20110;53.120;5.786;2023-04-03T03:06:06;-2.80;99.90
33803;DHT22;20110;53.120;5.786;2023-04-03T03:08:34;-2.70;99.90
33803;DHT22;20110;53.120;5.786;2023-04-03T03:11:01;-2.70;99.90
33803;DHT22;20110;53.120;5.786;2023-04-03T03:13:27;-2.70;99.90
33803;DHT22;20110;53.120;5.786;2023-04-03T03:15:54;-2.70;99.90
33803;DHT22;20110;53.120;5.786;2023-04-03T03:18:21;-2.70;99.90
33803;DHT22;20110;53.120;5.786;2023-04-03T03:20:52;-2.80;99.90
33803;DHT22;20110;53.120;5.786;2023-04-03T03:23:19;-2.90;99.90
33803;DHT22;20110;53.120;5.786;2023-04-03T03:25:45;-2.80;99.90
33803;DHT22;20110;53.120;5.786;2023-04-03T03:28:11;-2.80;99.90
33803;DHT22;20110;53.120;5.786;2023-04-03T03:30:37;-2.80;99.90
33803;DHT22;20110;53.120;5.786;2023-04-03T03:33:03;-2.80;99.90
33803;DHT22;20110;53.120;5.786;2023-04-03T03:35:29;-2.80;99.90
33803;DHT22;20110;53.120;5.786;2023-04-03T03:37:54;-2.80;99.90
33803;DHT22;20110;53.120;5.786;2023-04-03T03:40:20;-2.80;99.90
33803;DHT22;20110;53.120;5.786;2023-04-03T03:42:46;-2.70;99.90
33803;DHT22;20110;53.120;5.786;2023-04-03T03:45:12;-2.80;99.90
33803;DHT22;20110;53.120;5.786;2023-04-03T03:47:38;-2.90;99.90
33803;DHT22;20110;53.120;5.786;2023-04-03T03:50:05;-2.70;99.90
33803;DHT22;20110;53.120;5.786;2023-04-03T03:52:32;-2.80;99.90
33803;DHT22;20110;53.120;5.786;2023-04-03T03:54:57;-2.90;99.90
33803;DHT22;20110;53.120;5.786;2023-04-03T03:57:23;-2.90;99.90
33803;DHT22;20110;53.120;5.786;2023-04-03T03:59:50;-2.80;99.90
33803;DHT22;20110;53.120;5.786;2023-04-03T04:02:17;-2.80;99.90
33803;DHT22;20110;53.120;5.786;2023-04-03T04:04:42;-2.80;99.90
33803;DHT22;20110;53.120;5.786;2023-04-03T04:07:08;-2.80;99.90
33803;DHT22;20110;53.120;5.786;2023-04-03T04:09:34;-2.90;99.90
33803;DHT22;20110;53.120;5.786;2023-04-03T04:12:00;-2.90;99.90
33803;DHT22;20110;53.120;5.786;2023-04-03T04:14:26;-2.90;99.90
33803;DHT22;20110;53.120;5.786;2023-04-03T04:16:52;-3.00;99.90
33803;DHT22;20110;53.120;5.786;2023-04-03T04:19:17;-3.00;99.90
33803;DHT22;20110;53.120;5.786;2023-04-03T04:21:43;-3.00;99.90
33803;DHT22;20110;53.120;5.786;2023-04-03T04:24:09;-3.10;99.90
33803;DHT22;20110;53.120;5.786;2023-04-03T04:26:35;-3.10;99.90
33803;DHT22;20110;53.120;5.786;2023-04-03T04:29:01;-3.20;99.90
33803;DHT22;20110;53.120;5.786;2023-04-03T04:31:27;-3.20;99.90
33803;DHT22;20110;53.120;5.786;2023-04-03T04:33:53;-3.20;99.90
33803;DHT22;20110;53.120;5.786;2023-04-03T04:36:19;-3.30;99.90
33803;DHT22;20110;53.120;5.786;2023-04-03T04:38:45;-3.40;99.90
33803;DHT22;20110;53.120;5.786;2023-04-03T04:41:11;-3.40;99.90
33803;DHT22;20110;53.120;5.786;2023-04-03T04:43:36;-3.40;99.90
33803;DHT22;20110;53.120;5.786;2023-04-03T04:46:04;-3.40;99.90
33803;DHT22;20110;53.120;5.786;2023-04-03T04:48:32;-3.50;99.90
33803;DHT22;20110;53.120;5.786;2023-04-03T04:50:58;-3.50;99.90
33803;DHT22;20110;53.120;5.786;2023-04-03T04:53:24;-3.50;99.90
33803;DHT22;20110;53.120;5.786;2023-04-03T04:55:50;-3.50;99.90
33803;DHT22;20110;53.120;5.786;2023-04-03T04:58:17;-3.60;99.90
33803;DHT22;20110;53.120;5.786;2023-04-03T05:00:43;-3.60;99.90
33803;DHT22;20110;53.120;5.786;2023-04-03T05:03:09;-3.60;99.90
33803;DHT22;20110;53.120;5.786;2023-04-03T05:05:35;-3.70;99.90
33803;DHT22;20110;53.120;5.786;2023-04-03T05:08:01;-3.60;99.90
33803;DHT22;20110;53.120;5.786;2023-04-03T05:10:28;-3.50;99.90
33803;DHT22;20110;53.120;5.786;2023-04-03T05:12:54;-3.30;99.90
33803;DHT22;20110;53.120;5.786;2023-04-03T05:15:20;-3.40;99.90
33803;DHT22;20110;53.120;5.786;2023-04-03T05:17:46;-3.30;99.90
33803;DHT22;20110;53.120;5.786;2023-04-03T05:20:12;-3.20;99.90
33803;DHT22;20110;53.120;5.786;2023-04-03T05:22:38;-3.10;99.90
33803;DHT22;20110;53.120;5.786;2023-04-03T05:25:05;-3.20;99.90
33803;DHT22;20110;53.120;5.786;2023-04-03T05:27:31;-3.10;99.90
33803;DHT22;20110;53.120;5.786;2023-04-03T05:29:57;-3.20;99.90
33803;DHT22;20110;53.120;5.786;2023-04-03T05:32:24;-3.10;99.90
33803;DHT22;20110;53.120;5.786;2023-04-03T05:34:53;-3.00;99.90
33803;DHT22;20110;53.120;5.786;2023-04-03T05:37:21;-2.90;99.90
33803;DHT22;20110;53.120;5.786;2023-04-03T05:39:46;-2.90;99.90
33803;DHT22;20110;53.120;5.786;2023-04-03T05:42:12;-2.70;99.90
33803;DHT22;20110;53.120;5.786;2023-04-03T05:44:39;-2.70;99.90
33803;DHT22;20110;53.120;5.786;2023-04-03T05:47:06;-2.60;99.90
33803;DHT22;20110;53.120;5.786;2023-04-03T05:49:32;-2.60;99.90
33803;DHT22;20110;53.120;5.786;2023-04-03T05:51:58;-2.50;99.90
33803;DHT22;20110;53.120;5.786;2023-04-03T05:54:26;-2.50;99.90
33803;DHT22;20110;53.120;5.786;2023-04-03T05:56:53;-2.50;99.90
33803;DHT22;20110;53.120;5.786;2023-04-03T05:59:20;-2.40;99.90
33803;DHT22;20110;53.120;5.786;2023-04-03T06:01:46;-2.40;99.90
33803;DHT22;20110;53.120;5.786;2023-04-03T06:04:14;-2.40;99.90
33803;DHT22;20110;53.120;5.786;2023-04-03T06:06:52;-2.30;99.90
33803;DHT22;20110;53.120;5.786;2023-04-03T06:09:21;-2.30;99.90
33803;DHT22;20110;53.120;5.786;2023-04-03T06:11:49;-2.30;99.90
33803;DHT22;20110;53.120;5.786;2023-04-03T06:14:15;-2.20;99.90
33803;DHT22;20110;53.120;5.786;2023-04-03T06:16:41;-2.20;99.90
33803;DHT22;20110;53.120;5.786;2023-04-03T06:19:11;-2.10;99.90
33803;DHT22;20110;53.120;5.786;2023-04-03T06:21:38;-2.00;99.90
33803;DHT22;20110;53.120;5.786;2023-04-03T06:24:04;-2.00;99.90
33803;DHT22;20110;53.120;5.786;2023-04-03T06:26:31;-1.90;99.90
33803;DHT22;20110;53.120;5.786;2023-04-03T06:28:59;-1.90;99.90
33803;DHT22;20110;53.120;5.786;2023-04-03T06:31:25;-1.80;99.90
33803;DHT22;20110;53.120;5.786;2023-04-03T06:33:51;-1.70;99.90
33803;DHT22;20110;53.120;5.786;2023-04-03T06:36:19;-1.60;99.90
33803;DHT22;20110;53.120;5.786;2023-04-03T06:38:48;-1.60;99.90
33803;DHT22;20110;53.120;5.786;2023-04-03T06:41:15;-1.50;99.90
33803;DHT22;20110;53.120;5.786;2023-04-03T06:43:42;-1.40;99.90
33803;DHT22;20110;53.120;5.786;2023-04-03T06:46:16;-1.30;99.90
33803;DHT22;20110;53.120;5.786;2023-04-03T06:48:44;-1.20;99.90
33803;DHT22;20110;53.120;5.786;2023-04-03T06:51:30;-1.20;99.90
33803;DHT22;20110;53.120;5.786;2023-04-03T06:53:58;-1.10;99.90
33803;DHT22;20110;53.120;5.786;2023-04-03T06:56:25;-0.90;99.90
33803;DHT22;20110;53.120;5.786;2023-04-03T06:58:53;-0.80;99.90
33803;DHT22;20110;53.120;5.786;2023-04-03T07:01:23;-0.70;99.90
33803;DHT22;20110;53.120;5.786;2023-04-03T07:03:51;-0.60;99.90
33803;DHT22;20110;53.120;5.786;2023-04-03T07:06:18;-0.60;99.90
33803;DHT22;20110;53.120;5.786;2023-04-03T07:08:45;-0.60;99.90
33803;DHT22;20110;53.120;5.786;2023-04-03T07:11:14;-1.00;99.90
33803;DHT22;20110;53.120;5.786;2023-04-03T07:13:40;-1.20;99.90
33803;DHT22;20110;53.120;5.786;2023-04-03T07:16:07;-1.30;99.90
33803;DHT22;20110;53.120;5.786;2023-04-03T07:18:34;-1.30;99.90
33803;DHT22;20110;53.120;5.786;2023-04-03T07:21:01;-1.70;99.90
33803;DHT22;20110;53.120;5.786;2023-04-03T07:23:28;-1.80;99.90
33803;DHT22;20110;53.120;5.786;2023-04-03T07:25:54;-1.40;99.90
33803;DHT22;20110;53.120;5.786;2023-04-03T07:28:23;-1.00;99.90
33803;DHT22;20110;53.120;5.786;2023-04-03T07:30:58;-1.10;99.90
33803;DHT22;20110;53.120;5.786;2023-04-03T07:33:34;-1.30;99.90
33803;DHT22;20110;53.120;5.786;2023-04-03T07:36:01;-0.90;99.90
33803;DHT22;20110;53.120;5.786;2023-04-03T07:38:27;-0.70;99.90
33803;DHT22;20110;53.120;5.786;2023-04-03T07:40:54;-0.30;99.90
33803;DHT22;20110;53.120;5.786;2023-04-03T07:43:21;0.30;99.90
33803;DHT22;20110;53.120;5.786;2023-04-03T07:45:48;0.50;99.90
33803;DHT22;20110;53.120;5.786;2023-04-03T07:48:22;0.60;99.90
33803;DHT22;20110;53.120;5.786;2023-04-03T07:50:50;0.50;99.90
33803;DHT22;20110;53.120;5.786;2023-04-03T07:53:17;0.30;99.90
33803;DHT22;20110;53.120;5.786;2023-04-03T07:55:46;0.40;99.90
33803;DHT22;20110;53.120;5.786;2023-04-03T07:58:16;0.60;99.90
33803;DHT22;20110;53.120;5.786;2023-04-03T08:00:43;0.80;99.90
33803;DHT22;20110;53.120;5.786;2023-04-03T08:03:10;0.90;99.90
33803;DHT22;20110;53.120;5.786;2023-04-03T08:05:42;1.10;99.90
33803;DHT22;20110;53.120;5.786;2023-04-03T08:08:12;1.20;99.90
33803;DHT22;20110;53.120;5.786;2023-04-03T08:10:39;1.30;99.90
33803;DHT22;20110;53.120;5.786;2023-04-03T08:13:06;1.10;99.90
33803;DHT22;20110;53.120;5.786;2023-04-03T08:15:32;1.10;99.90
33803;DHT22;20110;53.120;5.786;2023-04-03T08:17:59;1.10;99.90
33803;DHT22;20110;53.120;5.786;2023-04-03T08:20:26;1.40;99.90
33803;DHT22;20110;53.120;5.786;2023-04-03T08:22:53;1.50;99.90
33803;DHT22;20110;53.120;5.786;2023-04-03T08:25:19;1.30;99.90
33803;DHT22;20110;53.120;5.786;2023-04-03T08:27:45;1.30;99.90
33803;DHT22;20110;53.120;5.786;2023-04-03T08:30:11;1.40;99.90
33803;DHT22;20110;53.120;5.786;2023-04-03T08:32:38;1.50;99.90
33803;DHT22;20110;53.120;5.786;2023-04-03T08:35:04;1.60;99.90
33803;DHT22;20110;53.120;5.786;2023-04-03T08:37:31;1.70;99.50
33803;DHT22;20110;53.120;5.786;2023-04-03T08:39:57;1.70;99.10
33803;DHT22;20110;53.120;5.786;2023-04-03T08:45:50;2.00;99.10
33803;DHT22;20110;53.120;5.786;2023-04-03T08:48:23;2.10;96.70
33803;DHT22;20110;53.120;5.786;2023-04-03T08:51:04;2.30;95.60
33803;DHT22;20110;53.120;5.786;2023-04-03T08:53:40;2.20;94.90
33803;DHT22;20110;53.120;5.786;2023-04-03T08:56:11;2.50;96.60
33803;DHT22;20110;53.120;5.786;2023-04-03T08:58:58;2.50;95.20
33803;DHT22;20110;53.120;5.786;2023-04-03T09:01:37;2.10;95.10
33803;DHT22;20110;53.120;5.786;2023-04-03T09:04:14;2.50;93.00
33803;DHT22;20110;53.120;5.786;2023-04-03T09:06:50;2.50;92.40
33803;DHT22;20110;53.120;5.786;2023-04-03T09:09:55;2.70;90.10
33803;DHT22;20110;53.120;5.786;2023-04-03T09:12:27;2.70;87.70
33803;DHT22;20110;53.120;5.786;2023-04-03T09:15:09;2.80;88.40
33803;DHT22;20110;53.120;5.786;2023-04-03T09:20:39;2.70;80.70
33803;DHT22;20110;53.120;5.786;2023-04-03T09:23:26;2.80;82.80
33803;DHT22;20110;53.120;5.786;2023-04-03T09:26:13;3.00;84.40
33803;DHT22;20110;53.120;5.786;2023-04-03T09:28:45;3.20;80.90
33803;DHT22;20110;53.120;5.786;2023-04-03T09:31:26;3.50;81.60
33803;DHT22;20110;53.120;5.786;2023-04-03T09:34:02;3.60;75.10
33803;DHT22;20110;53.120;5.786;2023-04-03T09:36:46;3.40;77.90
33803;DHT22;20110;53.120;5.786;2023-04-03T09:39:28;3.70;75.50
33803;DHT22;20110;53.120;5.786;2023-04-03T09:44:54;4.20;74.50
33803;DHT22;20110;53.120;5.786;2023-04-03T09:52:50;4.20;73.70
33803;DHT22;20110;53.120;5.786;2023-04-03T09:55:22;4.70;71.40
33803;DHT22;20110;53.120;5.786;2023-04-03T09:58:04;5.40;68.60
33803;DHT22;20110;53.120;5.786;2023-04-03T10:00:56;6.00;64.50
33803;DHT22;20110;53.120;5.786;2023-04-03T10:03:35;6.10;61.10
33803;DHT22;20110;53.120;5.786;2023-04-03T10:06:03;6.80;63.40
33803;DHT22;20110;53.120;5.786;2023-04-03T10:08:32;7.10;62.00
33803;DHT22;20110;53.120;5.786;2023-04-03T10:11:17;7.60;61.00
33803;DHT22;20110;53.120;5.786;2023-04-03T10:13:58;8.20;57.20
33803;DHT22;20110;53.120;5.786;2023-04-03T10:16:41;8.70;59.60
33803;DHT22;20110;53.120;5.786;2023-04-03T10:19:26;9.20;56.50
33803;DHT22;20110;53.120;5.786;2023-04-03T10:22:28;9.10;53.70
33803;DHT22;20110;53.120;5.786;2023-04-03T10:25:17;9.20;54.20
33803;DHT22;20110;53.120;5.786;2023-04-03T10:28:01;10.00;53.40
33803;DHT22;20110;53.120;5.786;2023-04-03T10:34:35;9.70;45.70
33803;DHT22;20110;53.120;5.786;2023-04-03T10:37:24;10.00;45.60
33803;DHT22;20110;53.120;5.786;2023-04-03T10:39:57;10.20;46.30
33803;DHT22;20110;53.120;5.786;2023-04-03T10:42:39;10.60;45.00
33803;DHT22;20110;53.120;5.786;2023-04-03T10:45:24;10.30;41.90
33803;DHT22;20110;53.120;5.786;2023-04-03T10:54:25;10.00;43.80
33803;DHT22;20110;53.120;5.786;2023-04-03T10:57:01;10.20;40.60
33803;DHT22;20110;53.120;5.786;2023-04-03T10:59:43;10.30;38.50
33803;DHT22;20110;53.120;5.786;2023-04-03T11:05:03;10.20;37.20
33803;DHT22;20110;53.120;5.786;2023-04-03T11:07:45;10.30;37.40
33803;DHT22;20110;53.120;5.786;2023-04-03T11:10:21;10.20;37.90
33803;DHT22;20110;53.120;5.786;2023-04-03T11:12:57;10.70;40.20
33803;DHT22;20110;53.120;5.786;2023-04-03T11:15:29;10.90;36.50
33803;DHT22;20110;53.120;5.786;2023-04-03T11:18:02;10.90;35.70
33803;DHT22;20110;53.120;5.786;2023-04-03T11:20:35;11.30;35.60
33803;DHT22;20110;53.120;5.786;2023-04-03T11:23:09;11.30;34.80
33803;DHT22;20110;53.120;5.786;2023-04-03T11:25:46;11.40;34.10
33803;DHT22;20110;53.120;5.786;2023-04-03T11:28:17;10.60;30.90
33803;DHT22;20110;53.120;5.786;2023-04-03T11:36:12;11.30;34.70
33803;DHT22;20110;53.120;5.786;2023-04-03T11:38:46;11.30;33.30
33803;DHT22;20110;53.120;5.786;2023-04-03T11:41:14;11.50;32.10
33803;DHT22;20110;53.120;5.786;2023-04-03T11:43:55;12.00;31.10
33803;DHT22;20110;53.120;5.786;2023-04-03T11:46:23;12.40;32.20
33803;DHT22;20110;53.120;5.786;2023-04-03T12:05:57;12.60;29.30
33803;DHT22;20110;53.120;5.786;2023-04-03T12:08:46;12.90;30.00
33803;DHT22;20110;53.120;5.786;2023-04-03T12:11:30;13.00;31.20
33803;DHT22;20110;53.120;5.786;2023-04-03T12:16:29;12.50;27.50
33803;DHT22;20110;53.120;5.786;2023-04-03T12:18:59;12.30;29.10
33803;DHT22;20110;53.120;5.786;2023-04-03T12:29:34;13.20;29.00
33803;DHT22;20110;53.120;5.786;2023-04-03T12:47:00;11.60;26.10
33803;DHT22;20110;53.120;5.786;2023-04-03T12:49:42;12.20;27.50
33803;DHT22;20110;53.120;5.786;2023-04-03T12:52:44;12.60;27.20
33803;DHT22;20110;53.120;5.786;2023-04-03T12:55:16;12.50;28.30
33803;DHT22;20110;53.120;5.786;2023-04-03T12:57:43;12.30;27.60
33803;DHT22;20110;53.120;5.786;2023-04-03T13:00:39;12.20;27.10
33803;DHT22;20110;53.120;5.786;2023-04-03T13:03:06;12.10;30.90
33803;DHT22;20110;53.120;5.786;2023-04-03T13:05:48;12.10;27.10
33803;DHT22;20110;53.120;5.786;2023-04-03T13:08:14;12.00;28.10
33803;DHT22;20110;53.120;5.786;2023-04-03T13:11:18;11.70;27.10
33803;DHT22;20110;53.120;5.786;2023-04-03T13:14:01;11.20;28.00
33803;DHT22;20110;53.120;5.786;2023-04-03T13:16:31;11.30;29.10
33803;DHT22;20110;53.120;5.786;2023-04-03T13:19:01;11.30;27.80
33803;DHT22;20110;53.120;5.786;2023-04-03T13:21:31;11.40;28.30
33803;DHT22;20110;53.120;5.786;2023-04-03T13:24:01;11.30;30.00
33803;DHT22;20110;53.120;5.786;2023-04-03T13:26:31;11.10;27.90
33803;DHT22;20110;53.120;5.786;2023-04-03T13:29:05;11.20;28.00
33803;DHT22;20110;53.120;5.786;2023-04-03T13:31:38;11.20;27.40
33803;DHT22;20110;53.120;5.786;2023-04-03T13:34:11;11.20;27.50
33803;DHT22;20110;53.120;5.786;2023-04-03T13:36:39;11.20;26.70
33803;DHT22;20110;53.120;5.786;2023-04-03T13:41:56;10.90;28.00
33803;DHT22;20110;53.120;5.786;2023-04-03T13:44:35;10.90;30.60
33803;DHT22;20110;53.120;5.786;2023-04-03T13:49:39;10.50;29.50
33803;DHT22;20110;53.120;5.786;2023-04-03T13:52:27;10.40;30.10
33803;DHT22;20110;53.120;5.786;2023-04-03T13:55:14;10.50;30.80
33803;DHT22;20110;53.120;5.786;2023-04-03T13:58:21;10.40;32.90
33803;DHT22;20110;53.120;5.786;2023-04-03T14:00:53;10.50;30.70
33803;DHT22;20110;53.120;5.786;2023-04-03T14:03:36;10.50;31.50
33803;DHT22;20110;53.120;5.786;2023-04-03T14:06:14;10.40;32.00
33803;DHT22;20110;53.120;5.786;2023-04-03T14:08:42;10.30;31.90
33803;DHT22;20110;53.120;5.786;2023-04-03T14:11:19;10.00;30.40
33803;DHT22;20110;53.120;5.786;2023-04-03T14:13:50;10.00;30.30
33803;DHT22;20110;53.120;5.786;2023-04-03T14:16:21;9.80;28.80
33803;DHT22;20110;53.120;5.786;2023-04-03T14:18:50;9.70;29.90
33803;DHT22;20110;53.120;5.786;2023-04-03T14:21:18;9.70;31.90
33803;DHT22;20110;53.120;5.786;2023-04-03T14:23:45;9.80;34.30
33803;DHT22;20110;53.120;5.786;2023-04-03T14:26:14;9.80;30.80
33803;DHT22;20110;53.120;5.786;2023-04-03T14:28:49;9.80;32.40
33803;DHT22;20110;53.120;5.786;2023-04-03T14:31:18;9.70;32.50
33803;DHT22;20110;53.120;5.786;2023-04-03T14:33:45;9.60;35.00
33803;DHT22;20110;53.120;5.786;2023-04-03T14:36:31;9.50;31.10
33803;DHT22;20110;53.120;5.786;2023-04-03T14:38:58;9.50;33.30
33803;DHT22;20110;53.120;5.786;2023-04-03T14:41:26;9.40;34.80
33803;DHT22;20110;53.120;5.786;2023-04-03T14:43:53;9.30;36.10
33803;DHT22;20110;53.120;5.786;2023-04-03T14:46:29;9.30;34.70
33803;DHT22;20110;53.120;5.786;2023-04-03T14:48:58;9.10;35.30
33803;DHT22;20110;53.120;5.786;2023-04-03T14:51:25;9.10;36.10
33803;DHT22;20110;53.120;5.786;2023-04-03T14:53:52;9.00;33.80
33803;DHT22;20110;53.120;5.786;2023-04-03T14:56:23;9.00;33.10
33803;DHT22;20110;53.120;5.786;2023-04-03T14:58:56;9.00;34.20
33803;DHT22;20110;53.120;5.786;2023-04-03T15:01:24;9.10;36.70
33803;DHT22;20110;53.120;5.786;2023-04-03T15:03:51;9.00;34.70
33803;DHT22;20110;53.120;5.786;2023-04-03T15:06:17;8.90;35.80
33803;DHT22;20110;53.120;5.786;2023-04-03T15:08:44;8.80;32.30
33803;DHT22;20110;53.120;5.786;2023-04-03T15:11:13;8.80;35.60
33803;DHT22;20110;53.120;5.786;2023-04-03T15:13:40;8.70;35.00
33803;DHT22;20110;53.120;5.786;2023-04-03T15:16:17;8.80;37.10
33803;DHT22;20110;53.120;5.786;2023-04-03T15:18:45;8.80;38.20
33803;DHT22;20110;53.120;5.786;2023-04-03T15:21:12;8.90;38.80
33803;DHT22;20110;53.120;5.786;2023-04-03T15:23:39;8.90;33.60
33803;DHT22;20110;53.120;5.786;2023-04-03T15:26:05;8.80;33.00
33803;DHT22;20110;53.120;5.786;2023-04-03T15:28:37;8.70;34.30
33803;DHT22;20110;53.120;5.786;2023-04-03T15:31:07;8.70;35.60
33803;DHT22;20110;53.120;5.786;2023-04-03T15:33:34;8.60;38.20
33803;DHT22;20110;53.120;5.786;2023-04-03T15:36:01;8.50;38.00
33803;DHT22;20110;53.120;5.786;2023-04-03T15:38:27;8.40;40.20
33803;DHT22;20110;53.120;5.786;2023-04-03T15:40:54;8.30;43.60
33803;DHT22;20110;53.120;5.786;2023-04-03T15:43:22;8.20;44.70
33803;DHT22;20110;53.120;5.786;2023-04-03T15:45:49;8.10;45.80
33803;DHT22;20110;53.120;5.786;2023-04-03T15:48:30;8.10;45.80
33803;DHT22;20110;53.120;5.786;2023-04-03T15:50:57;8.10;49.50
33803;DHT22;20110;53.120;5.786;2023-04-03T15:53:23;8.00;49.30
33803;DHT22;20110;53.120;5.786;2023-04-03T15:55:48;8.00;47.90
33803;DHT22;20110;53.120;5.786;2023-04-03T15:58:14;7.90;48.70
33803;DHT22;20110;53.120;5.786;2023-04-03T16:00:40;7.80;49.90
33803;DHT22;20110;53.120;5.786;2023-04-03T16:03:16;7.80;49.00
33803;DHT22;20110;53.120;5.786;2023-04-03T16:05:44;7.70;48.60
33803;DHT22;20110;53.120;5.786;2023-04-03T16:08:11;7.60;52.50
33803;DHT22;20110;53.120;5.786;2023-04-03T16:10:38;7.60;55.00
33803;DHT22;20110;53.120;5.786;2023-04-03T16:13:05;7.60;53.90
33803;DHT22;20110;53.120;5.786;2023-04-03T16:15:32;7.50;54.20
33803;DHT22;20110;53.120;5.786;2023-04-03T16:18:01;7.50;57.60
33803;DHT22;20110;53.120;5.786;2023-04-03T16:20:27;7.40;55.30
33803;DHT22;20110;53.120;5.786;2023-04-03T16:22:53;7.40;56.00
33803;DHT22;20110;53.120;5.786;2023-04-03T16:25:23;7.30;55.50
33803;DHT22;20110;53.120;5.786;2023-04-03T16:27:48;7.30;54.80
33803;DHT22;20110;53.120;5.786;2023-04-03T16:30:14;7.20;53.80
33803;DHT22;20110;53.120;5.786;2023-04-03T16:32:40;7.10;57.20
33803;DHT22;20110;53.120;5.786;2023-04-03T16:35:07;7.00;56.60
33803;DHT22;20110;53.120;5.786;2023-04-03T16:37:36;6.80;56.40
33803;DHT22;20110;53.120;5.786;2023-04-03T16:40:03;6.70;55.50
33803;DHT22;20110;53.120;5.786;2023-04-03T16:42:31;6.60;57.60
33803;DHT22;20110;53.120;5.786;2023-04-03T16:44:57;6.40;57.30
33803;DHT22;20110;53.120;5.786;2023-04-03T16:47:25;6.40;58.60
33803;DHT22;20110;53.120;5.786;2023-04-03T16:49:51;6.30;57.30
33803;DHT22;20110;53.120;5.786;2023-04-03T16:52:17;6.30;57.50
33803;DHT22;20110;53.120;5.786;2023-04-03T16:54:42;6.20;58.00
33803;DHT22;20110;53.120;5.786;2023-04-03T16:57:08;6.20;60.40
33803;DHT22;20110;53.120;5.786;2023-04-03T16:59:34;6.20;59.50
33803;DHT22;20110;53.120;5.786;2023-04-03T17:02:00;6.10;61.10
33803;DHT22;20110;53.120;5.786;2023-04-03T17:04:26;6.00;60.80
33803;DHT22;20110;53.120;5.786;2023-04-03T17:06:52;5.90;61.90
33803;DHT22;20110;53.120;5.786;2023-04-03T17:09:18;5.80;62.40
33803;DHT22;20110;53.120;5.786;2023-04-03T17:11:46;5.60;62.90
33803;DHT22;20110;53.120;5.786;2023-04-03T17:14:12;5.60;64.20
33803;DHT22;20110;53.120;5.786;2023-04-03T17:16:38;5.50;65.60
33803;DHT22;20110;53.120;5.786;2023-04-03T17:19:04;5.40;65.80
33803;DHT22;20110;53.120;5.786;2023-04-03T17:21:32;5.40;66.60
33803;DHT22;20110;53.120;5.786;2023-04-03T17:24:01;5.30;68.20